createdAt,value
2016-12-20T00:00:02.254Z,103.66
2016-12-20T00:05:02.660Z,103.55
2016-12-20T00:10:03.035Z,103.42
2016-12-20T00:15:02.396Z,103.62
2016-12-20T00:20:02.811Z,103.29
2016-12-20T00:25:02.120Z,103.55
2016-12-20T00:30:02.484Z,103.68
2016-12-20T00:35:02.895Z,103.62
2016-12-20T00:40:02.236Z,103.85
2016-12-20T00:45:02.613Z,103.39
2016-12-20T00:50:02.976Z,103.64
2016-12-20T00:55:02.330Z,103.65
2016-12-20T01:00:02.654Z,103.86
2016-12-20T01:05:03.010Z,103.93
2016-12-20T01:10:02.348Z,104.1
2016-12-20T01:15:02.684Z,103.64
2016-12-20T01:20:02.109Z,103.66
2016-12-20T01:25:02.511Z,103.99
2016-12-20T01:30:02.909Z,104.02
2016-12-20T01:35:02.299Z,103.75
2016-12-20T01:40:02.625Z,103.8
2016-12-20T01:45:02.987Z,103.59
2016-12-20T01:50:02.360Z,103.83
2016-12-20T01:55:02.693Z,103.62
2016-12-20T02:00:02.037Z,103.66
2016-12-20T02:05:02.415Z,103.84
2016-12-20T02:10:02.782Z,103.77
2016-12-20T02:15:02.145Z,103.5
2016-12-20T02:20:02.537Z,103.52
2016-12-20T02:25:02.872Z,103.36
2016-12-20T02:30:02.250Z,103.26
2016-12-20T02:35:02.584Z,103.26
2016-12-20T02:40:02.972Z,103.42
2016-12-20T02:45:02.331Z,103.6
2016-12-20T02:50:02.688Z,103.52
2016-12-20T02:55:02.024Z,103.74
2016-12-20T03:00:02.383Z,103.84
2016-12-20T03:05:02.759Z,103.85
2016-12-20T03:10:02.116Z,103.99
2016-12-20T03:15:02.548Z,103.86
2016-12-20T03:20:02.979Z,104
2016-12-20T03:25:02.322Z,104.1
2016-12-20T03:30:02.680Z,103.87
2016-12-20T03:35:03.021Z,103.52
2016-12-20T03:40:02.358Z,103.33
2016-12-20T03:45:02.695Z,103.45
2016-12-20T03:50:03.071Z,103.57
2016-12-20T03:55:02.433Z,103.72
2016-12-20T04:00:02.793Z,103.46
2016-12-20T04:05:02.085Z,103.55
2016-12-20T04:10:02.472Z,103.54
2016-12-20T04:15:02.851Z,103.62
2016-12-20T04:20:02.255Z,103.28
2016-12-20T04:25:02.615Z,103.55
2016-12-20T04:30:02.989Z,103.65
2016-12-20T04:35:02.334Z,103.88
2016-12-20T04:40:02.685Z,103.94
2016-12-20T04:45:03.083Z,103.92
2016-12-20T04:50:02.483Z,104.04
2016-12-20T04:55:02.826Z,104.02
2016-12-20T05:00:02.180Z,103.97
2016-12-20T05:05:02.532Z,103.84
2016-12-20T05:10:02.911Z,103.86
2016-12-20T05:15:02.275Z,103.97
2016-12-20T05:20:02.748Z,104.12
2016-12-20T05:25:02.206Z,104.16
2016-12-20T05:30:02.632Z,104.47
2016-12-20T05:35:02.989Z,104.47
2016-12-20T05:40:02.352Z,104.49
2016-12-20T05:45:03.075Z,104.59
2016-12-20T05:50:02.979Z,104.48
2016-12-20T05:55:02.350Z,104.17
2016-12-20T06:00:02.714Z,104.29
2016-12-20T06:05:02.055Z,104.39
2016-12-20T06:10:02.502Z,104.31
2016-12-20T06:15:02.871Z,104.34
2016-12-20T06:20:02.280Z,104.31
2016-12-20T06:25:02.619Z,104.33
2016-12-20T06:30:03.006Z,104.45
2016-12-20T06:35:02.347Z,104.39
2016-12-20T06:40:02.743Z,104.61
2016-12-20T06:45:02.067Z,104.62
2016-12-20T06:50:02.398Z,104.44
2016-12-20T06:55:02.741Z,104.81
2016-12-20T07:00:02.061Z,104.66
2016-12-20T07:05:02.469Z,104.6
2016-12-20T07:10:02.844Z,104.49
2016-12-20T07:15:02.200Z,104.55
2016-12-20T07:20:02.664Z,104.52
2016-12-20T07:25:03.028Z,104.74
2016-12-20T07:30:02.437Z,104.71
2016-12-20T07:35:02.833Z,104.81
2016-12-20T07:40:02.169Z,104.8
2016-12-20T07:45:02.553Z,104.77
2016-12-20T07:50:02.931Z,104.56
2016-12-20T07:55:02.257Z,104.61
2016-12-20T08:00:02.649Z,104.63
2016-12-20T08:05:02.998Z,104.86
2016-12-20T08:10:02.336Z,104.94
2016-12-20T08:15:02.699Z,104.99
2016-12-20T08:20:02.135Z,105.32
2016-12-20T08:25:02.542Z,105.47
2016-12-20T08:30:02.885Z,105.38
2016-12-20T08:35:02.269Z,105.35
2016-12-20T08:40:02.611Z,105.35
2016-12-20T08:45:02.966Z,105.48
2016-12-20T08:50:02.342Z,105.63
2016-12-20T08:55:02.676Z,105.55
2016-12-20T09:00:03.002Z,105.56
2016-12-20T09:05:02.357Z,105.26
2016-12-20T09:10:02.731Z,104.7
2016-12-20T09:15:02.077Z,104.95
2016-12-20T09:20:02.555Z,104.97
2016-12-20T09:25:02.904Z,104.92
2016-12-20T09:30:02.278Z,105.1
2016-12-20T09:35:02.632Z,104.69
2016-12-20T09:40:03.019Z,104.63
2016-12-20T09:45:02.357Z,104.56
2016-12-20T09:50:02.725Z,104.85
2016-12-20T09:55:02.040Z,104.87
2016-12-20T10:00:02.445Z,104.71
2016-12-20T10:05:02.767Z,104.81
2016-12-20T10:10:02.148Z,104.74
2016-12-20T10:15:02.559Z,104.17
2016-12-20T10:20:03.016Z,104.24
2016-12-20T10:25:02.401Z,104.36
2016-12-20T10:30:02.775Z,104.39
2016-12-20T10:35:02.098Z,104.2
2016-12-20T10:40:02.491Z,103.79
2016-12-20T10:45:02.863Z,103.76
2016-12-20T10:50:02.181Z,103.7
2016-12-20T10:55:02.539Z,103.74
2016-12-20T11:00:02.889Z,103.67
2016-12-20T11:05:02.280Z,103.7
2016-12-20T11:10:02.620Z,103.49
2016-12-20T11:15:02.944Z,103.39
2016-12-20T11:20:02.375Z,103.42
2016-12-20T11:25:02.737Z,103.12
2016-12-20T11:30:02.042Z,102.92
2016-12-20T11:35:02.453Z,102.76
2016-12-20T11:40:02.803Z,103.2
2016-12-20T11:45:02.144Z,102.96
2016-12-20T11:50:02.589Z,102.81
2016-12-20T11:55:03.013Z,103.02
2016-12-20T12:00:02.366Z,103.17
2016-12-20T12:05:02.748Z,103.06
2016-12-20T12:10:02.075Z,102.67
2016-12-20T12:15:02.427Z,102.84
2016-12-20T12:20:02.845Z,102.65
2016-12-20T12:25:02.212Z,102.53
2016-12-20T12:30:02.575Z,102.6
2016-12-20T12:35:03.005Z,102.23
2016-12-20T12:40:02.332Z,102.27
2016-12-20T12:45:02.705Z,102.32
2016-12-20T12:50:02.052Z,102.48
2016-12-20T12:55:02.399Z,102.69
2016-12-20T13:00:02.746Z,102.45
2016-12-20T13:05:02.070Z,102.41
2016-12-20T13:10:02.452Z,102.53
2016-12-20T13:15:02.807Z,102.94
2016-12-20T13:20:02.268Z,103.13
2016-12-20T13:25:02.671Z,102.66
2016-12-20T13:30:03.067Z,102.43
2016-12-20T13:35:02.364Z,102.5
2016-12-20T13:40:02.704Z,102.73
2016-12-20T13:45:02.030Z,102.85
2016-12-20T13:50:02.487Z,103.14
2016-12-20T13:55:02.906Z,102.91
2016-12-20T14:00:02.412Z,103.01
2016-12-20T14:05:02.741Z,102.94
2016-12-20T14:10:02.070Z,102.77
2016-12-20T14:15:02.414Z,102.35
2016-12-20T14:20:02.836Z,102.74
2016-12-20T14:25:02.239Z,102.38
2016-12-20T14:30:02.604Z,102.61
2016-12-20T14:35:02.953Z,102.61
2016-12-20T14:40:02.300Z,102.65
2016-12-20T14:45:02.649Z,102.91
2016-12-20T14:50:03.045Z,102.57
2016-12-20T14:55:02.428Z,102.59
2016-12-20T15:00:02.781Z,102.8
2016-12-20T15:05:02.116Z,102.82
2016-12-20T15:10:02.460Z,103.14
2016-12-20T15:15:02.804Z,102.96
2016-12-20T15:20:02.199Z,103.03
2016-12-20T15:25:02.628Z,103.13
2016-12-20T15:30:02.973Z,103.15
2016-12-20T15:35:02.373Z,103.13
2016-12-20T15:40:03.242Z,103.08
2016-12-20T15:45:03.376Z,102.83
2016-12-20T15:50:02.632Z,102.91
2016-12-20T15:55:02.976Z,103.07
2016-12-20T16:00:02.330Z,103.36
2016-12-20T16:05:02.772Z,103.26
2016-12-20T16:10:02.464Z,103.12
2016-12-20T16:15:02.274Z,103.22
2016-12-20T16:20:02.840Z,103.3
2016-12-20T16:25:02.497Z,103.28
2016-12-20T16:30:02.167Z,103.35
2016-12-20T16:35:02.562Z,103.3
2016-12-20T16:40:03.061Z,103.26
2016-12-20T16:45:02.635Z,103.46
2016-12-20T16:50:03.012Z,103.19
2016-12-20T16:55:02.384Z,103.17
2016-12-20T17:00:03.107Z,103.26
2016-12-20T17:05:03.067Z,103.44
2016-12-20T17:10:02.451Z,103.25
2016-12-20T17:15:03.088Z,103.13
2016-12-20T17:20:02.175Z,103.05
2016-12-20T17:40:02.482Z,103.18
2016-12-20T17:45:02.897Z,103.23
2016-12-20T17:50:02.430Z,103.42
2016-12-20T17:55:02.814Z,103.16
2016-12-20T18:00:02.440Z,103.27
2016-12-20T18:05:02.928Z,103.12
2016-12-20T18:10:02.758Z,103.01
2016-12-20T18:15:02.436Z,103.17
2016-12-20T18:20:02.895Z,102.84
2016-12-20T18:25:02.259Z,103.17
2016-12-20T18:30:02.938Z,103.13
2016-12-20T18:35:02.050Z,103.18
2016-12-20T18:40:02.441Z,102.91
2016-12-20T18:45:02.815Z,102.91
2016-12-20T18:50:02.144Z,102.86
2016-12-20T18:55:02.484Z,102.94
2016-12-20T19:00:03.286Z,102.98
2016-12-20T19:05:02.831Z,102.95
2016-12-20T19:10:02.387Z,102.85
2016-12-20T19:15:02.778Z,102.75
2016-12-20T19:20:02.213Z,102.74
2016-12-20T19:25:02.561Z,102.79
2016-12-20T19:30:02.889Z,102.62
2016-12-20T19:35:02.311Z,102.32
2016-12-20T19:40:02.654Z,102.24
2016-12-20T19:45:03.033Z,102.34
2016-12-20T19:50:02.603Z,102.2
2016-12-20T19:55:03.022Z,101.97
2016-12-20T20:00:02.364Z,102.18
2016-12-20T20:05:02.699Z,102.07
2016-12-20T20:10:02.171Z,102.09
2016-12-20T20:15:02.480Z,102.1
2016-12-20T20:20:02.928Z,101.97
2016-12-20T20:25:02.294Z,102.04
2016-12-20T20:30:02.659Z,102.07
2016-12-20T20:35:02.997Z,102.07
2016-12-20T20:40:02.384Z,102.09
2016-12-20T20:45:02.758Z,102.13
2016-12-20T20:50:02.673Z,102.1
2016-12-20T20:55:03.012Z,101.9
2016-12-20T21:00:02.366Z,101.74
2016-12-20T21:05:02.718Z,101.71
2016-12-20T21:10:02.080Z,101.75
2016-12-20T21:15:02.574Z,101.52
2016-12-20T21:20:02.342Z,101.94
2016-12-20T21:25:02.437Z,101.94
2016-12-20T21:30:02.873Z,102.07
2016-12-20T21:35:02.233Z,102.12
2016-12-20T21:40:02.654Z,102.14
2016-12-20T21:45:03.015Z,102.28
2016-12-20T21:50:02.376Z,102.39
2016-12-20T21:55:02.945Z,102.35
2016-12-20T22:00:02.264Z,102.47
2016-12-20T22:05:02.596Z,102.54
2016-12-20T22:10:02.969Z,102.57
2016-12-20T22:15:02.343Z,102.75
2016-12-20T22:20:02.776Z,102.75
2016-12-20T22:25:02.156Z,102.87
2016-12-20T22:30:02.502Z,102.88
2016-12-20T22:35:02.874Z,102.81
2016-12-20T22:40:02.239Z,102.84
2016-12-20T22:45:02.640Z,102.79
2016-12-20T22:50:03.028Z,102.83
2016-12-20T22:55:02.389Z,102.84
2016-12-20T23:00:02.792Z,102.78
2016-12-20T23:05:02.136Z,102.75
2016-12-20T23:10:02.538Z,102.72
2016-12-20T23:15:02.910Z,102.84
2016-12-20T23:20:02.380Z,102.84
2016-12-20T23:25:02.752Z,102.77
2016-12-20T23:30:02.080Z,102.62
2016-12-20T23:35:02.466Z,102.64
2016-12-20T23:40:02.865Z,102.61
2016-12-20T23:45:02.236Z,102.63
2016-12-20T23:50:02.615Z,102.71
2016-12-20T23:55:02.973Z,102.71
